Time;durP1;ratioP1;P1;durP2;ratioP2;P2;SDS_P1;SDS_P2;PMS_P1;PMS_P2;Temp;Humidity;BMP_temperature;BMP_pressure;BME280_temperature;BME280_humidity;BME280_pressure;Samples;Min_cycle;Max_cycle;Signal;HPM_P1;HPM_P2
2023/04/17 00:02:17;;;;;;;;;;;;;;;;;;5008982;28;19913;-85
2023/04/17 00:04:44;;;;;;;;;;;;;;;;;;4994334;28;19918;-82
2023/04/17 00:07:10;;;;;;;;;;;;;;;;;;5025331;28;20308;-82
2023/04/17 00:09:35;;;;;;;;;;;;;;;;;;5009406;28;19910;-82
2023/04/17 00:12:01;;;;;;;;;;;;;;;;;;4994186;28;19913;-83
2023/04/17 00:14:26;;;;;;;;;;;;;;;;;;4993127;28;19916;-82
2023/04/17 00:16:51;;;;;;;;;;;;;;;;;;5027386;28;19928;-84
2023/04/17 00:19:17;;;;;;;;;;;;;;;;;;4997232;28;20373;-83
2023/04/17 00:21:42;;;;;;;;;;;;;;;;;;4998397;28;19917;-83
2023/04/17 00:24:07;;;;;;;;;;;;;;;;;;5000934;28;19920;-83
2023/04/17 00:26:33;;;;;;;;;;;;;;;;;;5002482;28;19919;-83
2023/04/17 00:28:58;;;;;;;;;;;;;;;;;;5008013;28;19941;-83
2023/04/17 00:31:24;;;;;;;;;;;;;;;;;;5001275;28;19921;-82
2023/04/17 00:33:49;;;;;;;;;;;;;;;;;;5000365;28;19917;-82
2023/04/17 00:36:15;;;;;;;;;;;;;;;;;;5000063;28;19929;-82
2023/04/17 00:38:40;;;;;;;;;;;;;;;;;;4997258;28;20336;-83
2023/04/17 00:41:05;;;;;;;;;;;;;;;;;;4997211;28;20270;-83
2023/04/17 00:43:31;;;;;;;;;;;;;;;;;;5005267;28;19913;-83
2023/04/17 00:45:56;;;;;;;;;;;;;;;;;;5028220;28;20473;-82
2023/04/17 00:48:23;;;;;;;;;;;;;;;;;;4993895;28;19910;-82
2023/04/17 00:50:48;;;;;;;;;;;;;;;;;;4996321;28;19964;-85
2023/04/17 00:53:13;;;;;;;;;;;;;;;;;;4997212;28;19917;-84
2023/04/17 00:55:39;;;;;;;;;;;;;;;;;;4997618;28;19960;-83
2023/04/17 00:58:04;;;;;;;;;;;;;;;;;;5028589;28;19916;-83
2023/04/17 01:00:29;;;;;;;;;;;;;;;;;;4996906;28;20377;-83
2023/04/17 01:02:55;;;;;;;;;;;;;;;;;;5029323;28;19921;-83
2023/04/17 01:05:20;;;;;;;;;;;;;;;;;;5027687;28;20396;-83
2023/04/17 01:07:46;;;;;;;;;;;;;;;;;;5028949;28;19914;-83
2023/04/17 01:10:11;;;;;;;;;;;;;;;;;;4997375;28;19925;-83
2023/04/17 01:12:36;;;;;;;;;;;;;;;;;;5030447;28;19916;-83
2023/04/17 01:15:02;;;;;;;;;;;;;;;;;;4997618;28;19914;-82
2023/04/17 01:17:28;;;;;;;;;;;;;;;;;;5029867;28;19910;-83
2023/04/17 01:19:53;;;;;;;;;;;;;;;;;;4980865;28;19920;-83
2023/04/17 01:22:19;;;;;;;;;;;;;;;;;;5029612;28;19968;-82
2023/04/17 01:24:45;;;;;;;;;;;;;;;;;;5028054;28;20288;-83
2023/04/17 01:27:12;;;;;;;;;;;;;;;;;;5026963;28;20000;-83
2023/04/17 01:29:39;;;;;;;;;;;;;;;;;;5011328;28;19920;-83
2023/04/17 01:32:05;;;;;;;;;;;;;;;;;;4998049;28;19914;-83
2023/04/17 01:34:30;;;;;;;;;;;;;;;;;;4985193;28;19927;-82
2023/04/17 01:36:55;;;;;;;;;;;;;;;;;;4980792;28;19984;-84
2023/04/17 01:39:21;;;;;;;;;;;;;;;;;;4995870;28;20020;-82
2023/04/17 01:41:46;;;;;;;;;;;;;;;;;;4995810;28;20007;-83
2023/04/17 01:44:11;;;;;;;;;;;;;;;;;;4999221;28;20396;-83
2023/04/17 01:46:37;;;;;;;;;;;;;;;;;;4997086;28;19915;-82
2023/04/17 01:49:02;;;;;;;;;;;;;;;;;;5027552;28;19910;-82
2023/04/17 01:51:27;;;;;;;;;;;;;;;;;;4997134;28;19913;-82
2023/04/17 01:53:53;;;;;;;;;;;;;;;;;;4997416;28;19909;-82
2023/04/17 01:56:18;;;;;;;;;;;;;;;;;;4997153;28;19919;-84
2023/04/17 01:58:43;;;;;;;;;;;;;;;;;;4996807;28;19917;-83
2023/04/17 02:01:09;;;;;;;;;;;;;;;;;;4995699;28;20396;-83
2023/04/17 02:03:34;;;;;;;;;;;;;;;;;;4994271;28;19940;-83
2023/04/17 02:05:59;;;;;;;;;;;;;;;;;;4998183;28;19894;-83
2023/04/17 02:08:25;;;;;;;;;;;;;;;;;;4998341;28;19910;-83
2023/04/17 02:10:51;;;;;;;;;;;;;;;;;;5001461;28;19913;-83
2023/04/17 02:13:16;;;;;;;;;;;;;;;;;;4981262;28;19915;-83
2023/04/17 02:15:41;;;;;;;;;;;;;;;;;;4997643;28;19913;-82
2023/04/17 02:18:07;;;;;;;;;;;;;;;;;;5018026;28;19964;-82
2023/04/17 02:20:33;;;;;;;;;;;;;;;;;;4999981;28;19967;-82
2023/04/17 02:22:59;;;;;;;;;;;;;;;;;;4988569;28;19914;-84
2023/04/17 02:25:24;;;;;;;;;;;;;;;;;;5024990;28;19924;-83
2023/04/17 02:27:51;;;;;;;;;;;;;;;;;;5027330;28;19910;-82
2023/04/17 02:30:17;;;;;;;;;;;;;;;;;;4995285;28;20304;-83
2023/04/17 02:32:43;;;;;;;;;;;;;;;;;;4995231;28;19910;-83
2023/04/17 02:35:10;;;;;;;;;;;;;;;;;;4994739;28;19921;-84
2023/04/17 02:37:35;;;;;;;;;;;;;;;;;;4994451;28;19909;-83
2023/04/17 02:40:01;;;;;;;;;;;;;;;;;;4994651;28;19918;-83
2023/04/17 02:42:26;;;;;;;;;;;;;;;;;;4993980;28;19917;-84
2023/04/17 02:44:52;;;;;;;;;;;;;;;;;;4997675;28;19964;-84
2023/04/17 02:47:19;;;;;;;;;;;;;;;;;;4995020;28;19960;-84
2023/04/17 02:49:45;;;;;;;;;;;;;;;;;;4992546;28;19917;-83
2023/04/17 02:52:10;;;;;;;;;;;;;;;;;;4997044;28;19932;-83
2023/04/17 02:54:35;;;;;;;;;;;;;;;;;;4997790;28;19936;-83
2023/04/17 02:57:01;;;;;;;;;;;;;;;;;;4993550;28;20357;-82
2023/04/17 02:59:27;;;;;;;;;;;;;;;;;;4993647;28;20340;-83
2023/04/17 03:01:52;;;;;;;;;;;;;;;;;;4992389;28;19953;-83
2023/04/17 03:04:18;;;;;;;;;;;;;;;;;;5000321;28;20680;-83
2023/04/17 03:06:43;;;;;;;;;;;;;;;;;;4996538;28;20299;-83
2023/04/17 03:09:11;;;;;;;;;;;;;;;;;;4998742;28;19917;-84
2023/04/17 03:11:36;;;;;;;;;;;;;;;;;;4997648;28;19945;-84
2023/04/17 03:14:01;;;;;;;;;;;;;;;;;;5000164;28;19913;-85
2023/04/17 03:16:27;;;;;;;;;;;;;;;;;;4997816;28;20300;-84
2023/04/17 03:18:54;;;;;;;;;;;;;;;;;;4992886;28;19913;-83
2023/04/17 03:21:20;;;;;;;;;;;;;;;;;;4997634;28;20288;-82
2023/04/17 03:23:45;;;;;;;;;;;;;;;;;;4993730;28;20304;-84
2023/04/17 03:26:11;;;;;;;;;;;;;;;;;;5003359;28;20023;-83
2023/04/17 03:28:36;;;;;;;;;;;;;;;;;;4991685;28;20275;-84
2023/04/17 03:31:02;;;;;;;;;;;;;;;;;;4977850;28;19918;-83
2023/04/17 03:33:29;;;;;;;;;;;;;;;;;;4992690;28;19918;-83
2023/04/17 03:35:56;;;;;;;;;;;;;;;;;;5001452;28;20381;-84
2023/04/17 03:38:21;;;;;;;;;;;;;;;;;;4992603;28;19920;-83
2023/04/17 03:40:47;;;;;;;;;;;;;;;;;;4978159;28;19976;-84
2023/04/17 03:43:12;;;;;;;;;;;;;;;;;;4979364;28;19914;-83
2023/04/17 03:45:37;;;;;;;;;;;;;;;;;;4997751;28;19918;-83
2023/04/17 03:48:03;;;;;;;;;;;;;;;;;;4996135;28;20771;-84
2023/04/17 03:50:29;;;;;;;;;;;;;;;;;;4995318;28;19964;-84
2023/04/17 03:52:55;;;;;;;;;;;;;;;;;;5000626;28;19972;-83
2023/04/17 03:55:22;;;;;;;;;;;;;;;;;;4983346;28;19976;-84
2023/04/17 03:57:50;;;;;;;;;;;;;;;;;;5000977;28;20099;-84
2023/04/17 04:00:16;;;;;;;;;;;;;;;;;;4999619;28;19929;-84
2023/04/17 04:02:47;;;;;;;;;;;;;;;;;;5002827;28;19920;-84
2023/04/17 04:05:17;;;;;;;;;;;;;;;;;;5000799;28;19957;-84
2023/04/17 04:07:42;;;;;;;;;;;;;;;;;;5004271;28;20051;-84
2023/04/17 04:10:08;;;;;;;;;;;;;;;;;;4999435;28;19921;-83
2023/04/17 04:12:33;;;;;;;;;;;;;;;;;;4994901;28;19948;-84
2023/04/17 04:14:58;;;;;;;;;;;;;;;;;;4997213;28;19941;-84
2023/04/17 04:17:24;;;;;;;;;;;;;;;;;;4995803;28;20024;-83
2023/04/17 04:19:49;;;;;;;;;;;;;;;;;;4997538;28;20439;-83
2023/04/17 04:22:15;;;;;;;;;;;;;;;;;;5031503;28;19956;-84
2023/04/17 04:24:46;;;;;;;;;;;;;;;;;;5029406;28;19913;-82
2023/04/17 04:27:16;;;;;;;;;;;;;;;;;;5030640;28;19913;-83
2023/04/17 04:29:44;;;;;;;;;;;;;;;;;;4996738;28;19922;-83
2023/04/17 04:32:12;;;;;;;;;;;;;;;;;;5029570;28;19945;-83
2023/04/17 04:34:40;;;;;;;;;;;;;;;;;;5028496;28;19949;-84
2023/04/17 04:37:06;;;;;;;;;;;;;;;;;;4997285;28;20003;-83
2023/04/17 04:39:39;;;;;;;;;;;;;;;;;;4980267;28;19921;-79
2023/04/17 04:42:08;;;;;;;;;;;;;;;;;;5025233;28;20012;-81
2023/04/17 04:44:46;;;;;;;;;;;;;;;;;;4979421;28;19953;-84
2023/04/17 04:47:11;;;;;;;;;;;;;;;;;;4996223;28;19920;-80
2023/04/17 04:49:36;;;;;;;;;;;;;;;;;;4995850;28;19909;-81
2023/04/17 04:52:02;;;;;;;;;;;;;;;;;;5019448;28;19913;-81
2023/04/17 04:54:31;;;;;;;;;;;;;;;;;;4988839;28;19913;-85
2023/04/17 04:56:58;;;;;;;;;;;;;;;;;;5027971;28;19928;-83
2023/04/17 04:59:24;;;;;;;;;;;;;;;;;;4997162;28;19911;-82
2023/04/17 05:01:59;;;;;;;;;;;;;;;;;;5024723;28;19972;-81
2023/04/17 05:04:25;;;;;;;;;;;;;;;;;;5016596;28;19917;-85
2023/04/17 05:06:56;;;;;;;;;;;;;;;;;;5025061;28;20329;-83
2023/04/17 05:09:21;;;;;;;;;;;;;;;;;;5031364;28;19913;-84
2023/04/17 05:11:48;;;;;;;;;;;;;;;;;;5026799;28;19910;-83
2023/04/17 05:14:13;;;;;;;;;;;;;;;;;;4995862;28;19925;-86
2023/04/17 05:16:42;;;;;;;;;;;;;;;;;;5026865;28;19913;-80
2023/04/17 05:19:07;;;;;;;;;;;;;;;;;;5023040;28;19933;-82
2023/04/17 05:22:02;;;;;;;;;;;;;;;;;;4989263;28;19977;-81
2023/04/17 05:24:29;;;;;;;;;;;;;;;;;;5027226;28;20016;-82
2023/04/17 05:26:55;;;;;;;;;;;;;;;;;;4998257;28;19949;-82
2023/04/17 05:29:23;;;;;;;;;;;;;;;;;;4978222;28;19988;-83
2023/04/17 05:31:49;;;;;;;;;;;;;;;;;;4998935;28;19992;-82
2023/04/17 05:34:42;;;;;;;;;;;;;;;;;;5001273;28;20020;-82
2023/04/17 05:37:08;;;;;;;;;;;;;;;;;;5028436;28;19913;-82
2023/04/17 05:39:33;;;;;;;;;;;;;;;;;;5023188;28;19910;-83
2023/04/17 05:42:00;;;;;;;;;;;;;;;;;;5012757;28;19914;-82
2023/04/17 05:44:25;;;;;;;;;;;;;;;;;;5025597;28;20012;-82
2023/04/17 05:46:51;;;;;;;;;;;;;;;;;;5025276;28;19969;-81
2023/04/17 05:49:16;;;;;;;;;;;;;;;;;;4997471;28;19909;-81
2023/04/17 05:51:41;;;;;;;;;;;;;;;;;;5033489;28;19917;-80
2023/04/17 05:54:07;;;;;;;;;;;;;;;;;;4998994;28;19910;-81
2023/04/17 05:56:32;;;;;;;;;;;;;;;;;;5030517;28;19913;-79
2023/04/17 05:58:57;;;;;;;;;;;;;;;;;;4999456;28;19909;-82
2023/04/17 06:01:24;;;;;;;;;;;;;;;;;;5030761;28;20044;-82
2023/04/17 06:03:51;;;;;;;;;;;;;;;;;;4999116;28;19943;-81
2023/04/17 06:06:21;;;;;;;;;;;;;;;;;;5029620;28;19913;-82
2023/04/17 06:08:46;;;;;;;;;;;;;;;;;;4999994;28;19910;-82
2023/04/17 06:11:12;;;;;;;;;;;;;;;;;;5032597;28;19961;-82
2023/04/17 06:13:37;;;;;;;;;;;;;;;;;;5031274;28;19955;-82
2023/04/17 06:16:03;;;;;;;;;;;;;;;;;;5025528;28;19971;-81
2023/04/17 06:18:28;;;;;;;;;;;;;;;;;;5027372;28;20385;-81
2023/04/17 06:20:54;;;;;;;;;;;;;;;;;;5009047;28;19919;-82
2023/04/17 06:23:20;;;;;;;;;;;;;;;;;;4995337;28;19909;-81
2023/04/17 06:25:47;;;;;;;;;;;;;;;;;;4993903;28;19917;-80
2023/04/17 06:28:12;;;;;;;;;;;;;;;;;;4994808;28;19916;-81
2023/04/17 06:30:38;;;;;;;;;;;;;;;;;;5028975;28;19984;-81
2023/04/17 06:33:04;;;;;;;;;;;;;;;;;;4981159;28;19913;-81
2023/04/17 06:35:31;;;;;;;;;;;;;;;;;;5010329;28;19918;-82
2023/04/17 06:38:05;;;;;;;;;;;;;;;;;;5007641;28;19932;-81
2023/04/17 06:40:30;;;;;;;;;;;;;;;;;;5020339;28;19914;-81
2023/04/17 06:42:56;;;;;;;;;;;;;;;;;;5017395;28;20361;-81
2023/04/17 06:45:25;;;;;;;;;;;;;;;;;;5011425;28;19932;-82
2023/04/17 06:47:51;;;;;;;;;;;;;;;;;;5000028;28;19914;-81
2023/04/17 06:50:17;;;;;;;;;;;;;;;;;;5019970;28;19913;-81
2023/04/17 06:52:42;;;;;;;;;;;;;;;;;;4992586;28;19914;-82
2023/04/17 06:55:07;;;;;;;;;;;;;;;;;;4997413;28;19909;-80
2023/04/17 06:57:33;;;;;;;;;;;;;;;;;;4993530;28;20056;-87
2023/04/17 06:59:58;;;;;;;;;;;;;;;;;;5028984;28;19918;-86
2023/04/17 07:02:23;;;;;;;;;;;;;;;;;;4995732;28;19921;-88
2023/04/17 07:04:49;;;;;;;;;;;;;;;;;;4997865;28;19972;-88
2023/04/17 07:07:14;;;;;;;;;;;;;;;;;;4995763;28;20367;-88
2023/04/17 07:09:41;;;;;;;;;;;;;;;;;;4996097;28;19910;-86
2023/04/17 07:12:07;;;;;;;;;;;;;;;;;;5004059;28;19908;-86
2023/04/17 07:14:33;;;;;;;;;;;;;;;;;;4994808;28;20403;-86
2023/04/17 07:16:58;;;;;;;;;;;;;;;;;;4996747;28;19917;-87
2023/04/17 07:19:23;;;;;;;;;;;;;;;;;;5027011;28;19917;-87
2023/04/17 07:21:49;;;;;;;;;;;;;;;;;;4993772;28;19964;-80
2023/04/17 07:24:14;;;;;;;;;;;;;;;;;;4999446;28;19920;-80
2023/04/17 07:26:42;;;;;;;;;;;;;;;;;;5005070;28;19914;-80
2023/04/17 07:29:07;;;;;;;;;;;;;;;;;;4992972;28;19960;-80
2023/04/17 07:31:32;;;;;;;;;;;;;;;;;;4992635;28;19914;-80
2023/04/17 07:33:58;;;;;;;;;;;;;;;;;;4993346;28;19916;-81
2023/04/17 07:36:23;;;;;;;;;;;;;;;;;;4992437;28;20087;-81
2023/04/17 07:38:48;;;;;;;;;;;;;;;;;;4993835;28;19914;-81
2023/04/17 07:41:14;;;;;;;;;;;;;;;;;;4976305;28;19914;-81
2023/04/17 07:43:40;;;;;;;;;;;;;;;;;;4994418;28;19953;-81
2023/04/17 07:46:05;;;;;;;;;;;;;;;;;;5003779;28;20380;-82
2023/04/17 07:48:30;;;;;;;;;;;;;;;;;;4997593;28;19909;-82
2023/04/17 07:50:56;;;;;;;;;;;;;;;;;;5003485;28;19964;-80
2023/04/17 07:53:24;;;;;;;;;;;;;;;;;;5025075;28;19917;-81
2023/04/17 07:55:51;;;;;;;;;;;;;;;;;;5003914;28;19924;-81
2023/04/17 07:58:16;;;;;;;;;;;;;;;;;;4993605;28;19910;-80
2023/04/17 08:00:42;;;;;;;;;;;;;;;;;;4993275;28;19967;-80
2023/04/17 08:03:07;;;;;;;;;;;;;;;;;;4992901;28;19995;-79
2023/04/17 08:05:32;;;;;;;;;;;;;;;;;;4996707;28;20381;-79
2023/04/17 08:07:59;;;;;;;;;;;;;;;;;;4992363;28;19910;-80
2023/04/17 08:10:24;;;;;;;;;;;;;;;;;;4995781;28;19913;-82
2023/04/17 08:12:50;;;;;;;;;;;;;;;;;;4994746;28;19989;-81
2023/04/17 08:15:16;;;;;;;;;;;;;;;;;;5002649;28;19913;-80
2023/04/17 08:17:41;;;;;;;;;;;;;;;;;;5001544;28;19947;-79
2023/04/17 08:20:07;;;;;;;;;;;;;;;;;;5003082;28;19936;-80
2023/04/17 08:22:32;;;;;;;;;;;;;;;;;;4996933;28;20016;-79
2023/04/17 08:24:58;;;;;;;;;;;;;;;;;;5023220;28;19918;-81
2023/04/17 08:27:24;;;;;;;;;;;;;;;;;;4996464;28;19915;-80
2023/04/17 08:29:52;;;;;;;;;;;;;;;;;;4998744;28;20439;-80
2023/04/17 08:32:17;;;;;;;;;;;;;;;;;;5002186;28;19984;-81
2023/04/17 08:34:42;;;;;;;;;;;;;;;;;;4997135;28;20079;-80
2023/04/17 08:37:08;;;;;;;;;;;;;;;;;;5004558;28;19925;-81
2023/04/17 08:39:33;;;;;;;;;;;;;;;;;;5003157;28;19914;-80
2023/04/17 08:41:59;;;;;;;;;;;;;;;;;;5008705;28;20392;-80
2023/04/17 08:44:25;;;;;;;;;;;;;;;;;;5002788;28;19922;-81
2023/04/17 08:46:50;;;;;;;;;;;;;;;;;;5008733;28;19917;-80
2023/04/17 08:49:16;;;;;;;;;;;;;;;;;;5002972;28;19967;-81
2023/04/17 08:51:41;;;;;;;;;;;;;;;;;;5033833;28;20000;-79
2023/04/17 08:54:06;;;;;;;;;;;;;;;;;;5003443;28;20373;-80
2023/04/17 08:56:31;;;;;;;;;;;;;;;;;;5009701;28;19911;-81
2023/04/17 08:58:57;;;;;;;;;;;;;;;;;;5035165;28;19920;-81
2023/04/17 09:01:22;;;;;;;;;;;;;;;;;;5034338;28;20266;-80
2023/04/17 09:03:47;;;;;;;;;;;;;;;;;;5034620;28;19968;-81
2023/04/17 09:06:13;;;;;;;;;;;;;;;;;;5009701;28;19963;-80
2023/04/17 09:08:38;;;;;;;;;;;;;;;;;;5003131;28;20653;-80
2023/04/17 09:11:04;;;;;;;;;;;;;;;;;;5039360;28;20392;-81
2023/04/17 09:13:29;;;;;;;;;;;;;;;;;;5007604;28;19948;-80
2023/04/17 09:15:54;;;;;;;;;;;;;;;;;;4990388;28;20004;-79
2023/04/17 09:18:20;;;;;;;;;;;;;;;;;;5010913;28;19917;-81
2023/04/17 09:20:45;;;;;;;;;;;;;;;;;;5013034;28;20424;-80
2023/04/17 09:23:10;;;;;;;;;;;;;;;;;;4999746;28;19921;-79
2023/04/17 09:25:36;;;;;;;;;;;;;;;;;;5026494;28;20286;-79
2023/04/17 09:28:01;;;;;;;;;;;;;;;;;;4996625;28;19913;-80
2023/04/17 09:30:26;;;;;;;;;;;;;;;;;;5025862;28;19909;-81
2023/04/17 09:32:52;;;;;;;;;;;;;;;;;;4996787;28;20411;-79
2023/04/17 09:35:17;;;;;;;;;;;;;;;;;;4996408;28;19918;-81
2023/04/17 09:37:42;;;;;;;;;;;;;;;;;;4995090;28;19914;-81
2023/04/17 09:40:09;;;;;;;;;;;;;;;;;;4997180;28;19917;-80
2023/04/17 09:42:34;;;;;;;;;;;;;;;;;;4995708;28;19920;-80
2023/04/17 09:44:59;;;;;;;;;;;;;;;;;;4998420;28;20297;-81
2023/04/17 09:47:25;;;;;;;;;;;;;;;;;;4993611;28;20296;-79
2023/04/17 09:49:54;;;;;;;;;;;;;;;;;;4996337;28;19916;-81
2023/04/17 09:52:22;;;;;;;;;;;;;;;;;;4996604;28;19920;-80
2023/04/17 09:54:48;;;;;;;;;;;;;;;;;;4997683;28;19916;-80
2023/04/17 09:57:13;;;;;;;;;;;;;;;;;;4996021;28;19914;-82
2023/04/17 09:59:39;;;;;;;;;;;;;;;;;;4999511;28;20002;-81
2023/04/17 10:02:05;;;;;;;;;;;;;;;;;;4997506;28;20000;-80
2023/04/17 10:04:30;;;;;;;;;;;;;;;;;;4997815;28;20360;-80
2023/04/17 10:06:56;;;;;;;;;;;;;;;;;;5002908;28;19917;-79
2023/04/17 10:09:22;;;;;;;;;;;;;;;;;;5004834;28;19913;-80
2023/04/17 10:11:47;;;;;;;;;;;;;;;;;;4997431;28;19914;-79
2023/04/17 10:14:12;;;;;;;;;;;;;;;;;;5000377;28;19913;-81
2023/04/17 10:16:38;;;;;;;;;;;;;;;;;;4997472;28;19914;-81
2023/04/17 10:19:03;;;;;;;;;;;;;;;;;;5002474;28;19957;-82
2023/04/17 10:21:28;;;;;;;;;;;;;;;;;;4994322;28;20353;-81
2023/04/17 10:23:54;;;;;;;;;;;;;;;;;;4993720;28;20360;-82
2023/04/17 10:26:19;;;;;;;;;;;;;;;;;;4994683;28;20389;-81
2023/04/17 10:28:44;;;;;;;;;;;;;;;;;;4994769;28;19910;-80
2023/04/17 10:31:10;;;;;;;;;;;;;;;;;;4993636;28;20008;-81
2023/04/17 10:33:35;;;;;;;;;;;;;;;;;;4996905;28;19909;-81
2023/04/17 10:36:01;;;;;;;;;;;;;;;;;;5000221;28;20290;-82
2023/04/17 10:38:28;;;;;;;;;;;;;;;;;;4997034;28;19913;-81
2023/04/17 10:40:54;;;;;;;;;;;;;;;;;;4996964;28;19960;-82
2023/04/17 10:43:21;;;;;;;;;;;;;;;;;;5000338;28;19952;-81
2023/04/17 10:45:46;;;;;;;;;;;;;;;;;;4998170;28;20295;-81
2023/04/17 10:48:11;;;;;;;;;;;;;;;;;;5003011;28;19909;-81
2023/04/17 10:50:37;;;;;;;;;;;;;;;;;;5001879;28;19917;-80
2023/04/17 10:53:02;;;;;;;;;;;;;;;;;;5005909;28;20407;-80
2023/04/17 10:55:28;;;;;;;;;;;;;;;;;;5003572;28;19921;-81
2023/04/17 10:57:54;;;;;;;;;;;;;;;;;;5004869;28;19915;-81
2023/04/17 11:00:19;;;;;;;;;;;;;;;;;;5003308;28;19918;-80
2023/04/17 11:02:45;;;;;;;;;;;;;;;;;;5006008;28;19909;-80
2023/04/17 11:05:11;;;;;;;;;;;;;;;;;;4999686;28;21151;-82
2023/04/17 11:07:36;;;;;;;;;;;;;;;;;;5008857;28;19959;-79
2023/04/17 11:10:01;;;;;;;;;;;;;;;;;;5028795;28;19979;-80
2023/04/17 11:12:27;;;;;;;;;;;;;;;;;;5008155;28;19968;-80
2023/04/17 11:14:52;;;;;;;;;;;;;;;;;;5014538;28;19967;-81
2023/04/17 11:17:17;;;;;;;;;;;;;;;;;;5009807;28;19909;-81
2023/04/17 11:19:43;;;;;;;;;;;;;;;;;;4999785;28;19937;-81
2023/04/17 11:22:08;;;;;;;;;;;;;;;;;;4999877;28;20005;-82
2023/04/17 11:24:34;;;;;;;;;;;;;;;;;;4985189;28;20511;-81
2023/04/17 11:26:59;;;;;;;;;;;;;;;;;;4994057;28;20349;-81
2023/04/17 11:29:25;;;;;;;;;;;;;;;;;;4993292;28;19918;-81
2023/04/17 11:31:53;;;;;;;;;;;;;;;;;;4992732;28;20004;-80
2023/04/17 11:34:19;;;;;;;;;;;;;;;;;;4993789;28;19924;-79
2023/04/17 11:36:44;;;;;;;;;;;;;;;;;;4992992;28;19917;-80
2023/04/17 11:39:09;;;;;;;;;;;;;;;;;;4992175;28;19913;-80
2023/04/17 11:41:35;;;;;;;;;;;;;;;;;;4993068;28;19920;-81
2023/04/17 11:44:00;;;;;;;;;;;;;;;;;;4992604;28;20332;-80
2023/04/17 11:46:25;;;;;;;;;;;;;;;;;;4992258;28;20447;-82
2023/04/17 11:48:50;;;;;;;;;;;;;;;;;;4988058;28;19914;-81
2023/04/17 11:51:16;;;;;;;;;;;;;;;;;;4990382;28;19909;-82
2023/04/17 11:53:41;;;;;;;;;;;;;;;;;;4992757;28;19913;-82
2023/04/17 11:56:06;;;;;;;;;;;;;;;;;;4995848;28;20320;-81
2023/04/17 11:58:32;;;;;;;;;;;;;;;;;;5001425;28;19914;-80
2023/04/17 12:00:57;;;;;;;;;;;;;;;;;;4999378;28;20329;-81
2023/04/17 12:03:23;;;;;;;;;;;;;;;;;;4993188;28;19921;-82
2023/04/17 12:05:48;;;;;;;;;;;;;;;;;;4992686;28;19949;-81
2023/04/17 12:08:14;;;;;;;;;;;;;;;;;;4993133;28;19914;-80
2023/04/17 12:10:39;;;;;;;;;;;;;;;;;;4996665;28;19998;-81
2023/04/17 12:13:05;;;;;;;;;;;;;;;;;;4996164;28;19913;-82
2023/04/17 12:15:30;;;;;;;;;;;;;;;;;;5027993;28;19910;-81
2023/04/17 12:17:55;;;;;;;;;;;;;;;;;;4996761;28;19920;-80
2023/04/17 12:20:21;;;;;;;;;;;;;;;;;;5001968;28;19934;-81
2023/04/17 12:22:46;;;;;;;;;;;;;;;;;;5027824;28;20387;-80
2023/04/17 12:25:11;;;;;;;;;;;;;;;;;;4997097;28;20012;-81
2023/04/17 12:27:37;;;;;;;;;;;;;;;;;;4996830;28;20373;-81
2023/04/17 12:30:02;;;;;;;;;;;;;;;;;;4996443;28;19917;-81
2023/04/17 12:32:28;;;;;;;;;;;;;;;;;;4996697;28;20005;-81
2023/04/17 12:34:54;;;;;;;;;;;;;;;;;;4995860;28;19984;-81
2023/04/17 12:37:20;;;;;;;;;;;;;;;;;;4994984;28;19988;-81
2023/04/17 12:39:46;;;;;;;;;;;;;;;;;;4996610;28;20423;-82
2023/04/17 12:42:11;;;;;;;;;;;;;;;;;;4996698;28;20012;-80
2023/04/17 12:44:36;;;;;;;;;;;;;;;;;;4995949;28;19922;-81
2023/04/17 12:47:02;;;;;;;;;;;;;;;;;;4994935;28;20365;-79
2023/04/17 12:49:27;;;;;;;;;;;;;;;;;;4995510;28;20391;-82
2023/04/17 12:51:53;;;;;;;;;;;;;;;;;;5000504;28;19999;-81
2023/04/17 12:54:18;;;;;;;;;;;;;;;;;;4998627;28;19961;-79
2023/04/17 12:56:43;;;;;;;;;;;;;;;;;;4996854;28;19914;-81
2023/04/17 12:59:09;;;;;;;;;;;;;;;;;;4994937;28;19914;-79
2023/04/17 13:01:34;;;;;;;;;;;;;;;;;;4994428;28;19920;-80
2023/04/17 13:03:59;;;;;;;;;;;;;;;;;;4996978;28;19910;-80
2023/04/17 13:06:26;;;;;;;;;;;;;;;;;;4996787;28;19917;-79
2023/04/17 13:08:52;;;;;;;;;;;;;;;;;;4995116;28;19910;-81
2023/04/17 13:11:17;;;;;;;;;;;;;;;;;;4995350;28;19914;-79
2023/04/17 13:13:42;;;;;;;;;;;;;;;;;;4995642;28;19910;-80
2023/04/17 13:16:08;;;;;;;;;;;;;;;;;;4996064;28;19920;-80
2023/04/17 13:18:33;;;;;;;;;;;;;;;;;;4996147;28;19924;-81
2023/04/17 13:20:58;;;;;;;;;;;;;;;;;;5026644;28;19918;-80
2023/04/17 13:23:24;;;;;;;;;;;;;;;;;;4992858;28;20292;-80
2023/04/17 13:25:49;;;;;;;;;;;;;;;;;;4993601;28;19918;-81
2023/04/17 13:28:14;;;;;;;;;;;;;;;;;;4993499;28;19920;-80
2023/04/17 13:30:40;;;;;;;;;;;;;;;;;;4995002;28;19921;-81
2023/04/17 13:33:05;;;;;;;;;;;;;;;;;;4995079;28;20372;-81
2023/04/17 13:35:30;;;;;;;;;;;;;;;;;;4995355;28;19924;-81
2023/04/17 13:37:59;;;;;;;;;;;;;;;;;;4995021;28;19910;-81
2023/04/17 13:40:25;;;;;;;;;;;;;;;;;;4983464;28;20369;-81
2023/04/17 13:42:50;;;;;;;;;;;;;;;;;;4994807;28;19917;-81
2023/04/17 13:45:16;;;;;;;;;;;;;;;;;;4995193;28;19921;-81
2023/04/17 13:47:43;;;;;;;;;;;;;;;;;;4994513;28;20361;-81
2023/04/17 13:50:08;;;;;;;;;;;;;;;;;;5014489;28;19972;-80
2023/04/17 13:52:34;;;;;;;;;;;;;;;;;;4994187;28;20369;-81
2023/04/17 13:54:59;;;;;;;;;;;;;;;;;;5029218;28;19971;-80
2023/04/17 13:57:24;;;;;;;;;;;;;;;;;;5011276;28;19913;-81
2023/04/17 13:59:50;;;;;;;;;;;;;;;;;;5028834;28;19927;-81
2023/04/17 14:02:15;;;;;;;;;;;;;;;;;;5033576;28;19910;-81
2023/04/17 14:04:40;;;;;;;;;;;;;;;;;;5008213;28;20113;-81
2023/04/17 14:07:06;;;;;;;;;;;;;;;;;;5012492;28;19917;-82
2023/04/17 14:09:31;;;;;;;;;;;;;;;;;;5010671;28;19913;-80
2023/04/17 14:11:57;;;;;;;;;;;;;;;;;;5035052;28;19909;-82
2023/04/17 14:14:22;;;;;;;;;;;;;;;;;;5008214;28;19921;-79
2023/04/17 14:16:49;;;;;;;;;;;;;;;;;;5012776;28;19909;-79
2023/04/17 14:19:15;;;;;;;;;;;;;;;;;;5009458;28;19914;-80
2023/04/17 14:21:40;;;;;;;;;;;;;;;;;;5025174;28;19916;-81
2023/04/17 14:24:05;;;;;;;;;;;;;;;;;;4993805;28;19920;-81
2023/04/17 14:26:31;;;;;;;;;;;;;;;;;;4993633;28;19909;-81
2023/04/17 14:28:56;;;;;;;;;;;;;;;;;;5025026;28;19920;-81
2023/04/17 14:31:22;;;;;;;;;;;;;;;;;;4995194;28;19960;-79
2023/04/17 14:33:47;;;;;;;;;;;;;;;;;;4994066;28;19913;-80
2023/04/17 14:36:12;;;;;;;;;;;;;;;;;;4994531;28;19918;-81
2023/04/17 14:38:38;;;;;;;;;;;;;;;;;;4992780;28;19960;-80
2023/04/17 14:41:03;;;;;;;;;;;;;;;;;;4993468;28;20424;-81
2023/04/17 14:43:28;;;;;;;;;;;;;;;;;;4993336;28;19924;-80
2023/04/17 14:45:54;;;;;;;;;;;;;;;;;;4994162;28;19925;-81
2023/04/17 14:48:19;;;;;;;;;;;;;;;;;;5025142;28;19914;-82
2023/04/17 14:50:45;;;;;;;;;;;;;;;;;;4993753;28;19910;-81
2023/04/17 14:53:10;;;;;;;;;;;;;;;;;;4997259;28;19913;-82
2023/04/17 14:55:35;;;;;;;;;;;;;;;;;;4995843;28;20024;-82
2023/04/17 14:58:01;;;;;;;;;;;;;;;;;;4993118;28;20455;-82
2023/04/17 15:00:26;;;;;;;;;;;;;;;;;;4988802;28;19917;-82
2023/04/17 15:02:51;;;;;;;;;;;;;;;;;;4991872;28;20017;-81
2023/04/17 15:05:18;;;;;;;;;;;;;;;;;;5022492;28;20300;-80
2023/04/17 15:07:44;;;;;;;;;;;;;;;;;;5008958;28;19920;-80
2023/04/17 15:10:09;;;;;;;;;;;;;;;;;;4991819;28;19910;-80
2023/04/17 15:12:35;;;;;;;;;;;;;;;;;;4994403;28;20007;-81
2023/04/17 15:15:00;;;;;;;;;;;;;;;;;;4992214;28;19917;-80
2023/04/17 15:17:25;;;;;;;;;;;;;;;;;;5021780;28;19914;-81
2023/04/17 15:19:51;;;;;;;;;;;;;;;;;;4995022;28;19910;-81
2023/04/17 15:22:16;;;;;;;;;;;;;;;;;;4993535;28;19964;-80
2023/04/17 15:24:41;;;;;;;;;;;;;;;;;;4994752;28;20003;-80
2023/04/17 15:27:07;;;;;;;;;;;;;;;;;;5027530;28;20017;-81
2023/04/17 15:29:32;;;;;;;;;;;;;;;;;;4993018;28;19909;-81
2023/04/17 15:31:59;;;;;;;;;;;;;;;;;;4994693;28;19980;-84
2023/04/17 15:34:24;;;;;;;;;;;;;;;;;;4993526;28;19992;-80
2023/04/17 15:36:50;;;;;;;;;;;;;;;;;;4992171;28;20444;-81
2023/04/17 15:39:15;;;;;;;;;;;;;;;;;;4993454;28;19910;-80
2023/04/17 15:41:40;;;;;;;;;;;;;;;;;;4993170;28;19918;-81
2023/04/17 15:44:06;;;;;;;;;;;;;;;;;;4993032;28;20392;-81
2023/04/17 15:46:31;;;;;;;;;;;;;;;;;;4990450;28;20349;-82
2023/04/17 15:48:56;;;;;;;;;;;;;;;;;;4992219;28;19909;-82
2023/04/17 15:51:22;;;;;;;;;;;;;;;;;;4994120;28;19956;-83
2023/04/17 15:53:47;;;;;;;;;;;;;;;;;;4993361;28;19984;-82
2023/04/17 15:56:12;;;;;;;;;;;;;;;;;;4992054;28;19914;-82
2023/04/17 15:58:38;;;;;;;;;;;;;;;;;;4992774;28;19910;-82
2023/04/17 16:01:03;;;;;;;;;;;;;;;;;;4994347;28;20376;-83
2023/04/17 16:03:28;;;;;;;;;;;;;;;;;;4992255;28;19968;-82
2023/04/17 16:05:54;;;;;;;;;;;;;;;;;;4984780;28;19953;-82
2023/04/17 16:08:19;;;;;;;;;;;;;;;;;;4993517;28;20391;-83
2023/04/17 16:10:44;;;;;;;;;;;;;;;;;;4992908;28;19920;-82
2023/04/17 16:13:10;;;;;;;;;;;;;;;;;;4993175;28;20360;-81
2023/04/17 16:15:35;;;;;;;;;;;;;;;;;;5001566;28;19960;-81
2023/04/17 16:18:00;;;;;;;;;;;;;;;;;;5025604;28;19963;-80
2023/04/17 16:20:26;;;;;;;;;;;;;;;;;;5002413;28;19921;-80
2023/04/17 16:22:51;;;;;;;;;;;;;;;;;;4993600;28;19925;-82
2023/04/17 16:25:16;;;;;;;;;;;;;;;;;;4993623;28;20017;-82
2023/04/17 16:27:41;;;;;;;;;;;;;;;;;;4993292;28;19917;-82
2023/04/17 16:30:07;;;;;;;;;;;;;;;;;;4993069;28;20273;-81
2023/04/17 16:32:32;;;;;;;;;;;;;;;;;;4999333;28;19910;-80
2023/04/17 16:34:58;;;;;;;;;;;;;;;;;;5002114;28;20376;-83
2023/04/17 16:37:23;;;;;;;;;;;;;;;;;;4996791;28;19937;-82